Time;durP1;ratioP1;P1;durP2;ratioP2;P2;SDS_P1;SDS_P2;PMS_P1;PMS_P2;Temp;Humidity;BMP_temperature;BMP_pressure;BME280_temperature;BME280_humidity;BME280_pressure;Samples;Min_cycle;Max_cycle;Signal;HPM_P1;HPM_P2
2024/01/22 00:00:13;;;;;;;10.82;6.47;;;;;;;0.95;88.75;100164.69;334867;28;4723;-76
2024/01/22 00:00:25;;;;;;;10.32;6.50;;;;;;;0.94;88.90;100165.53;336038;28;4638;-77
2024/01/22 00:00:37;;;;;;;10.30;6.35;;;;;;;0.88;88.68;100163.72;334514;28;19138;-77
2024/01/22 00:00:50;;;;;;;10.65;6.28;;;;;;;0.76;89.41;100164.41;336606;28;5612;-77
2024/01/22 00:01:02;;;;;;;10.40;6.20;;;;;;;0.75;89.96;100167.81;334009;28;18220;-79
2024/01/22 00:01:14;;;;;;;12.23;6.13;;;;;;;0.79;89.93;100172.13;338458;28;4837;-77
2024/01/22 00:01:26;;;;;;;13.75;7.10;;;;;;;0.88;89.41;100183.34;332556;28;4791;-78
2024/01/22 00:01:39;;;;;;;11.75;6.88;;;;;;;0.92;88.96;100174.88;334807;28;18046;-78
2024/01/22 00:01:51;;;;;;;10.13;6.22;;;;;;;0.99;89.52;100161.34;336843;28;4732;-77
2024/01/22 00:02:03;;;;;;;9.70;5.80;;;;;;;0.96;89.36;100161.28;333614;28;18407;-77
2024/01/22 00:02:15;;;;;;;9.48;5.50;;;;;;;0.89;88.85;100159.50;336776;28;5361;-78
2024/01/22 00:02:28;;;;;;;10.18;5.75;;;;;;;0.89;89.00;100156.94;335114;28;12269;-79
2024/01/22 00:02:40;;;;;;;10.55;6.15;;;;;;;0.88;89.12;100147.50;333520;28;4519;-79
2024/01/22 00:02:52;;;;;;;9.90;6.03;;;;;;;0.91;89.11;100142.44;335361;28;18367;-77
2024/01/22 00:03:04;;;;;;;10.52;5.95;;;;;;;0.91;89.18;100140.75;338963;28;4592;-77
2024/01/22 00:03:17;;;;;;;11.52;6.30;;;;;;;0.89;89.10;100139.88;336735;28;4633;-76
2024/01/22 00:03:30;;;;;;;11.45;6.63;;;;;;;0.90;88.74;100158.63;336427;28;17159;-76
2024/01/22 00:03:42;;;;;;;10.48;6.45;;;;;;;0.88;88.77;100152.63;336261;28;12256;-79
2024/01/22 00:03:54;;;;;;;11.57;6.45;;;;;;;0.91;89.11;100150.97;339065;28;5044;-77
2024/01/22 00:04:07;;;;;;;12.27;6.40;;;;;;;0.86;88.25;100150.03;338733;28;4715;-77
2024/01/22 00:04:19;;;;;;;12.05;6.28;;;;;;;0.88;87.88;100156.03;336274;28;17526;-77
2024/01/22 00:04:31;;;;;;;10.70;6.20;;;;;;;0.88;88.63;100161.16;338841;28;4545;-77
2024/01/22 00:04:43;;;;;;;11.20;6.18;;;;;;;0.77;87.99;100155.91;335853;28;18114;-77
2024/01/22 00:04:55;;;;;;;11.73;5.95;;;;;;;0.75;88.41;100149.88;338631;28;4542;-77
2024/01/22 00:05:09;;;;;;;11.05;5.78;;;;;;;0.76;88.61;100148.19;336132;28;14434;-77
2024/01/22 00:05:21;;;;;;;10.05;5.93;;;;;;;0.78;88.90;100144.81;337463;28;4615;-77
2024/01/22 00:05:33;;;;;;;10.15;6.18;;;;;;;0.78;89.15;100142.25;333106;28;17843;-76
2024/01/22 00:05:45;;;;;;;11.65;6.25;;;;;;;0.79;88.89;100150.81;333954;28;18266;-77
2024/01/22 00:05:57;;;;;;;11.35;6.10;;;;;;;0.82;89.30;100153.41;334457;28;13530;-76
2024/01/22 00:06:10;;;;;;;11.30;5.85;;;;;;;0.88;89.08;100158.59;337654;28;4523;-78
2024/01/22 00:06:22;;;;;;;10.10;5.18;;;;;;;0.94;88.71;100153.56;336322;28;4596;-77
2024/01/22 00:06:38;;;;;;;9.77;5.25;;;;;;;0.99;88.92;100156.22;333555;28;18070;-79
2024/01/22 00:06:52;;;;;;;10.55;6.13;;;;;;;1.01;88.79;100151.97;333682;28;17602;-77
2024/01/22 00:07:04;;;;;;;11.38;6.47;;;;;;;1.03;88.36;100157.97;333768;28;13897;-79
2024/01/22 00:07:16;;;;;;;11.95;5.88;;;;;;;1.04;87.90;100154.56;337176;28;4706;-77
2024/01/22 00:07:28;;;;;;;11.45;5.55;;;;;;;1.04;88.65;100154.56;334735;28;18184;-78
2024/01/22 00:07:40;;;;;;;11.05;5.63;;;;;;;1.06;88.13;100146.91;337487;28;4614;-78
2024/01/22 00:07:52;;;;;;;10.57;5.88;;;;;;;1.07;88.00;100143.53;336554;28;5644;-77
2024/01/22 00:08:05;;;;;;;9.88;5.82;;;;;;;1.07;88.33;100135.84;333670;28;18269;-77
2024/01/22 00:08:17;;;;;;;10.45;6.18;;;;;;;1.06;88.49;100137.53;335769;28;4607;-77
2024/01/22 00:08:29;;;;;;;10.30;5.93;;;;;;;1.04;88.17;100139.22;332411;29;16348;-76
2024/01/22 00:08:41;;;;;;;10.47;5.97;;;;;;;1.06;88.34;100142.66;334192;29;17633;-77
2024/01/22 00:08:53;;;;;;;10.80;5.93;;;;;;;1.07;88.16;100149.50;336214;29;12107;-76
2024/01/22 00:09:06;;;;;;;10.77;6.25;;;;;;;1.09;88.28;100144.41;333791;29;17566;-77
2024/01/22 00:09:18;;;;;;;10.30;6.30;;;;;;;1.09;88.24;100146.97;335461;28;4709;-80
2024/01/22 00:09:31;;;;;;;10.93;6.35;;;;;;;1.11;88.48;100145.28;332448;29;17983;-77
2024/01/22 00:09:43;;;;;;;10.90;6.13;;;;;;;1.12;88.50;100152.97;335768;28;4735;-77
2024/01/22 00:09:55;;;;;;;11.25;6.22;;;;;;;1.12;88.42;100147.84;334894;28;17237;-80
2024/01/22 00:10:08;;;;;;;10.07;6.03;;;;;;;1.14;88.31;100153.00;339102;28;5298;-77
2024/01/22 00:10:20;;;;;;;9.35;5.50;;;;;;;1.15;87.86;100153.03;335528;28;17886;-78
2024/01/22 00:10:32;;;;;;;9.25;5.47;;;;;;;1.13;88.14;100154.72;339003;28;4718;-78
2024/01/22 00:10:44;;;;;;;10.05;6.10;;;;;;;1.08;87.59;100152.91;336112;28;18037;-78
2024/01/22 00:10:56;;;;;;;11.25;6.53;;;;;;;1.11;87.90;100147.84;337332;28;4671;-78
2024/01/22 00:11:08;;;;;;;11.68;6.85;;;;;;;1.10;88.16;100149.53;337735;28;4662;-79
2024/01/22 00:11:20;;;;;;;12.05;6.60;;;;;;;1.12;87.92;100142.72;335092;28;16270;-80
2024/01/22 00:11:32;;;;;;;11.18;5.88;;;;;;;1.11;87.88;100141.03;337415;28;5012;-79
2024/01/22 00:11:44;;;;;;;10.65;5.55;;;;;;;1.11;87.46;100133.34;337788;28;4689;-77
2024/01/22 00:11:56;;;;;;;10.35;5.40;;;;;;;1.09;88.12;100129.91;334703;28;18589;-77
2024/01/22 00:12:09;;;;;;;10.98;5.47;;;;;;;1.09;87.97;100136.72;337608;28;4875;-77
2024/01/22 00:12:21;;;;;;;11.25;5.75;;;;;;;1.07;87.49;100131.59;333928;28;18356;-77
2024/01/22 00:12:33;;;;;;;12.73;6.07;;;;;;;1.03;87.86;100127.25;337087;28;4690;-77
2024/01/22 00:12:45;;;;;;;13.60;6.35;;;;;;;1.04;88.06;100134.09;332623;28;5505;-77
2024/01/22 00:12:57;;;;;;;12.55;6.47;;;;;;;1.06;88.09;100137.53;335518;28;17472;-77
2024/01/22 00:13:09;;;;;;;10.88;6.20;;;;;;;1.05;88.08;100133.25;336752;28;11100;-77
2024/01/22 00:13:21;;;;;;;11.40;6.05;;;;;;;1.06;88.02;100129.84;334819;28;18405;-78
2024/01/22 00:13:33;;;;;;;11.52;6.18;;;;;;;1.04;87.54;100123.84;336472;29;4684;-77
2024/01/22 00:13:45;;;;;;;11.70;5.95;;;;;;;1.04;87.81;100123.00;333508;28;18798;-77
2024/01/22 00:13:59;;;;;;;14.60;6.10;;;;;;;1.00;87.60;100116.97;336750;29;4698;-77
2024/01/22 00:14:11;;;;;;;15.07;5.90;;;;;;;0.98;88.20;100114.38;332805;28;18130;-76
2024/01/22 00:14:23;;;;;;;11.50;5.55;;;;;;;0.98;87.72;100108.41;330631;28;4836;-79
2024/01/22 00:14:35;;;;;;;12.80;5.60;;;;;;;0.97;87.98;100101.59;336160;29;4541;-77
2024/01/22 00:14:47;;;;;;;12.13;6.00;;;;;;;0.92;87.94;100113.44;330760;28;18208;-77
2024/01/22 00:14:59;;;;;;;14.15;6.10;;;;;;;0.88;88.24;100116.81;335220;28;5209;-77
2024/01/22 00:15:12;;;;;;;13.50;5.95;;;;;;;0.88;87.94;100121.91;333896;28;17190;-76
2024/01/22 00:15:24;;;;;;;10.75;5.63;;;;;;;0.92;87.80;100124.53;337748;28;4888;-77
2024/01/22 00:15:36;;;;;;;9.68;5.40;;;;;;;0.98;88.28;100121.22;334050;28;13066;-77
2024/01/22 00:15:48;;;;;;;10.68;5.50;;;;;;;0.99;88.16;100130.63;333394;28;4648;-77
2024/01/22 00:16:00;;;;;;;11.10;5.50;;;;;;;1.01;88.14;100128.94;339020;28;5314;-77
2024/01/22 00:16:12;;;;;;;10.68;5.90;;;;;;;1.00;87.79;100122.09;336177;28;19023;-76
2024/01/22 00:16:24;;;;;;;11.55;6.55;;;;;;;0.99;88.11;100115.25;338618;28;5535;-78
2024/01/22 00:16:39;;;;;;;10.90;6.75;;;;;;;0.96;88.47;100125.44;336724;28;6318;-79
2024/01/22 00:16:51;;;;;;;13.30;6.32;;;;;;;0.92;87.92;100124.53;334707;28;13129;-77
2024/01/22 00:17:03;;;;;;;15.13;6.18;;;;;;;0.94;88.43;100117.75;337465;28;5436;-77
2024/01/22 00:17:16;;;;;;;12.15;5.85;;;;;;;0.93;88.12;100125.41;333065;28;4756;-77
2024/01/22 00:17:28;;;;;;;12.20;6.30;;;;;;;0.94;88.53;100111.75;335453;28;19220;-77
2024/01/22 00:17:40;;;;;;;10.80;6.28;;;;;;;0.93;88.16;100120.31;336290;28;5276;-77
2024/01/22 00:17:52;;;;;;;10.77;6.50;;;;;;;0.88;88.12;100116.81;333542;29;18042;-76
2024/01/22 00:18:04;;;;;;;12.15;6.50;;;;;;;0.90;88.28;100121.09;336537;29;4622;-78
2024/01/22 00:18:16;;;;;;;11.23;5.90;;;;;;;0.92;88.47;100119.41;333901;28;19244;-79
2024/01/22 00:18:28;;;;;;;10.65;5.70;;;;;;;0.95;88.60;100123.75;336071;29;4700;-77
2024/01/22 00:18:41;;;;;;;12.27;6.00;;;;;;;0.96;88.33;100122.88;331774;29;4645;-77
2024/01/22 00:18:53;;;;;;;11.57;6.15;;;;;;;0.96;88.70;100120.31;334120;28;17981;-77
2024/01/22 00:19:06;;;;;;;12.05;6.03;;;;;;;0.97;87.96;100124.63;336944;28;4764;-77
2024/01/22 00:19:18;;;;;;;9.48;5.32;;;;;;;0.98;88.25;100129.75;330032;28;18038;-79
2024/01/22 00:19:30;;;;;;;9.00;5.43;;;;;;;0.99;88.22;100122.94;336956;28;4555;-77
2024/01/22 00:19:42;;;;;;;10.90;6.03;;;;;;;1.00;88.42;100116.97;335010;28;17985;-77
2024/01/22 00:19:55;;;;;;;12.57;6.40;;;;;;;1.04;88.19;100126.41;337674;28;5108;-78
2024/01/22 00:20:07;;;;;;;12.18;6.05;;;;;;;1.03;88.32;100132.38;331785;28;4857;-76
2024/01/22 00:20:20;;;;;;;11.48;5.82;;;;;;;1.05;87.99;100125.59;337585;28;4521;-77
2024/01/22 00:20:32;;;;;;;10.98;6.05;;;;;;;1.07;88.27;100120.50;334797;28;16291;-79
2024/01/22 00:20:44;;;;;;;10.52;6.35;;;;;;;1.07;88.38;100116.22;337655;28;4505;-78
2024/01/22 00:20:57;;;;;;;11.05;6.15;;;;;;;1.05;88.04;100115.34;334272;28;13026;-77
2024/01/22 00:21:09;;;;;;;11.10;6.43;;;;;;;1.00;88.51;100111.84;337884;28;5247;-77
2024/01/22 00:21:21;;;;;;;9.30;6.18;;;;;;;0.98;87.93;100109.25;336631;28;4570;-77
2024/01/22 00:21:33;;;;;;;12.07;6.22;;;;;;;0.96;88.19;100100.69;333488;28;15908;-77
2024/01/22 00:21:45;;;;;;;12.35;6.18;;;;;;;0.94;88.62;100106.66;333698;28;17938;-77
2024/01/22 00:21:58;;;;;;;12.98;6.45;;;;;;;0.92;88.50;100108.31;336782;28;4672;-77
2024/01/22 00:22:09;;;;;;;11.07;6.20;;;;;;;0.91;88.56;100101.50;333626;28;18166;-77
2024/01/22 00:22:21;;;;;;;11.02;6.22;;;;;;;0.90;88.72;100110.00;336790;28;4562;-77
2024/01/22 00:22:33;;;;;;;10.95;6.60;;;;;;;0.89;88.83;100108.31;335379;28;5088;-77
2024/01/22 00:22:45;;;;;;;11.18;6.35;;;;;;;0.90;88.60;100110.00;337389;28;4524;-77
2024/01/22 00:22:57;;;;;;;10.80;6.38;;;;;;;0.90;88.88;100110.00;330195;28;12233;-77
2024/01/22 00:23:10;;;;;;;10.05;6.10;;;;;;;0.89;88.87;100116.81;337613;28;5319;-77
2024/01/22 00:23:21;;;;;;;10.60;6.05;;;;;;;0.92;89.10;100108.31;337543;28;4645;-77
2024/01/22 00:23:33;;;;;;;10.43;6.07;;;;;;;0.94;88.49;100116.88;335535;28;5247;-76
2024/01/22 00:23:46;;;;;;;10.77;5.82;;;;;;;1.01;88.62;100111.03;338258;28;5355;-77
2024/01/22 00:23:58;;;;;;;10.82;6.22;;;;;;;0.98;88.88;100113.53;335976;28;11830;-76
2024/01/22 00:24:10;;;;;;;10.40;6.35;;;;;;;0.98;88.39;100110.97;338567;28;5085;-77
2024/01/22 00:24:22;;;;;;;11.32;6.20;;;;;;;0.98;88.38;100108.41;337671;28;5389;-77
2024/01/22 00:24:34;;;;;;;10.32;5.80;;;;;;;0.98;88.78;100108.41;329938;28;17929;-79
2024/01/22 00:24:46;;;;;;;9.98;5.57;;;;;;;1.01;88.34;100113.59;337131;28;4558;-78
2024/01/22 00:24:58;;;;;;;10.35;5.40;;;;;;;1.01;88.60;100113.59;337126;28;4641;-79
2024/01/22 00:25:10;;;;;;;10.40;5.40;;;;;;;1.01;87.94;100113.59;333722;28;18072;-77
2024/01/22 00:25:22;;;;;;;9.77;5.55;;;;;;;1.03;88.12;100119.59;337411;28;4744;-77
2024/01/22 00:25:34;;;;;;;12.00;5.68;;;;;;;1.05;87.77;100106.78;333557;28;17822;-78
2024/01/22 00:25:46;;;;;;;12.32;5.82;;;;;;;1.05;87.79;100117.91;336281;28;4694;-79
2024/01/22 00:25:58;;;;;;;11.18;5.70;;;;;;;1.05;88.37;100115.34;331761;28;4606;-78
2024/01/22 00:26:12;;;;;;;10.98;5.55;;;;;;;1.05;87.69;100119.56;333718;28;17946;-79
2024/01/22 00:26:24;;;;;;;11.65;5.50;;;;;;;1.04;88.03;100117.88;333426;28;16075;-77
2024/01/22 00:26:36;;;;;;;9.90;5.20;;;;;;;1.04;88.00;100113.59;336126;28;5519;-77
2024/01/22 00:26:48;;;;;;;9.13;5.30;;;;;;;1.04;87.52;100116.16;336411;28;5302;-78
2024/01/22 00:27:00;;;;;;;12.18;5.50;;;;;;;1.11;88.01;100110.31;334159;28;18817;-79
2024/01/22 00:27:12;;;;;;;12.25;5.60;;;;;;;1.13;87.56;100107.78;337018;28;4503;-78
2024/01/22 00:27:24;;;;;;;13.10;5.80;;;;;;;1.10;87.60;100107.72;334261;28;11923;-77
2024/01/22 00:27:36;;;;;;;9.88;5.55;;;;;;;1.04;87.06;100108.50;334481;28;17321;-79
2024/01/22 00:27:49;;;;;;;11.07;5.88;;;;;;;1.05;87.33;100109.34;337382;28;4701;-79
2024/01/22 00:28:01;;;;;;;12.02;6.18;;;;;;;1.06;87.06;100111.94;333559;28;17574;-77
2024/01/22 00:28:13;;;;;;;12.60;6.10;;;;;;;1.02;87.66;100110.16;338181;28;4690;-80
2024/01/22 00:28:25;;;;;;;11.40;5.82;;;;;;;1.00;87.63;100111.84;333393;28;18231;-77
2024/01/22 00:28:43;;;;;;;12.05;5.68;;;;;;;0.99;87.91;100110.16;337460;28;5458;-77
2024/01/22 00:28:56;;;;;;;12.02;6.05;;;;;;;1.03;87.86;100108.47;334913;28;17717;-76
2024/01/22 00:29:08;;;;;;;10.55;5.70;;;;;;;1.09;87.93;100116.25;335996;28;4708;-77
2024/01/22 00:29:20;;;;;;;9.00;4.90;;;;;;;1.05;87.92;100114.47;332301;29;7585;-78
2024/01/22 00:29:32;;;;;;;12.25;5.60;;;;;;;1.07;87.57;100112.81;335153;29;4949;-77
2024/01/22 00:29:44;;;;;;;12.90;6.00;;;;;;;1.10;87.60;100108.56;335891;28;4551;-77
2024/01/22 00:29:56;;;;;;;11.05;5.45;;;;;;;1.15;88.00;100101.81;333844;28;18223;-79
2024/01/22 00:30:10;;;;;;;9.70;5.00;;;;;;;1.13;87.78;100112.88;336655;28;5477;-79
2024/01/22 00:30:23;;;;;;;9.48;4.72;;;;;;;1.14;87.40;100105.22;333362;28;18040;-79
2024/01/22 00:30:35;;;;;;;9.63;5.00;;;;;;;1.12;87.38;100106.88;335781;28;4533;-77
2024/01/22 00:30:47;;;;;;;8.85;4.97;;;;;;;1.14;87.13;100097.53;330396;29;18990;-78
2024/01/22 00:30:59;;;;;;;9.35;4.95;;;;;;;1.22;87.39;100100.19;335911;29;4790;-79
2024/01/22 00:31:10;;;;;;;11.07;5.72;;;;;;;1.25;87.11;100101.91;333999;29;5095;-76
2024/01/22 00:31:23;;;;;;;12.38;6.55;;;;;;;1.23;86.87;100098.47;337148;28;4805;-80
2024/01/22 00:31:35;;;;;;;11.15;6.03;;;;;;;1.25;86.86;100101.91;337262;28;4538;-78
2024/01/22 00:31:47;;;;;;;10.60;5.75;;;;;;;1.24;86.55;100106.19;330063;28;18212;-77
2024/01/22 00:31:59;;;;;;;9.85;5.90;;;;;;;1.24;86.49;100105.34;336271;28;4515;-77
2024/01/22 00:32:11;;;;;;;9.70;5.65;;;;;;;1.23;86.38;100101.91;333847;28;12841;-77
2024/01/22 00:32:23;;;;;;;11.00;5.32;;;;;;;1.18;86.75;100106.97;336587;28;4703;-77
2024/01/22 00:32:36;;;;;;;11.50;5.25;;;;;;;1.14;86.64;100100.09;333314;28;4608;-76
2024/01/22 00:32:50;;;;;;;10.85;5.43;;;;;;;1.14;86.97;100099.22;336286;29;4607;-77
2024/01/22 00:33:03;;;;;;;9.23;5.10;;;;;;;1.08;86.55;100100.00;328959;29;17915;-79
2024/01/22 00:33:15;;;;;;;8.88;5.10;;;;;;;1.03;86.75;100101.66;336269;28;5494;-77
2024/01/22 00:33:27;;;;;;;10.25;5.75;;;;;;;1.00;87.28;100092.22;331186;29;18057;-81
2024/01/22 00:33:42;;;;;;;11.40;5.85;;;;;;;0.98;86.80;100098.16;336471;28;4551;-77
2024/01/22 00:33:54;;;;;;;10.93;5.53;;;;;;;0.94;87.39;100093.84;334559;28;18071;-78
2024/01/22 00:34:06;;;;;;;8.48;5.32;;;;;;;0.95;87.40;100093.88;334497;28;17977;-79
2024/01/22 00:34:19;;;;;;;8.10;5.20;;;;;;;0.96;87.40;100092.16;337529;28;5560;-78
2024/01/22 00:34:31;;;;;;;8.57;5.53;;;;;;;0.96;87.50;100089.59;337101;28;5015;-78
2024/01/22 00:34:43;;;;;;;9.35;5.75;;;;;;;0.96;87.60;100084.50;330300;28;18383;-77
2024/01/22 00:34:55;;;;;;;8.75;5.60;;;;;;;0.95;87.69;100087.91;336936;28;5104;-78
2024/01/22 00:35:08;;;;;;;8.20;5.28;;;;;;;0.93;86.95;100085.31;333771;28;18614;-77
2024/01/22 00:35:20;;;;;;;9.25;5.32;;;;;;;0.94;87.39;100081.06;336107;28;5088;-77
2024/01/22 00:35:32;;;;;;;8.23;4.80;;;;;;;0.93;87.65;100084.47;335102;28;17688;-77
2024/01/22 00:35:44;;;;;;;7.40;4.75;;;;;;;0.94;87.63;100081.91;336387;29;5361;-78
2024/01/22 00:35:56;;;;;;;7.13;4.50;;;;;;;0.96;87.29;100081.94;336120;28;5033;-78
2024/01/22 00:36:12;;;;;;;7.88;4.43;;;;;;;0.99;87.04;100075.16;333478;28;18264;-78
2024/01/22 00:36:24;;;;;;;7.78;4.47;;;;;;;1.02;86.74;100073.47;332611;28;19304;-78
2024/01/22 00:36:36;;;;;;;7.78;4.68;;;;;;;1.02;87.15;100082.00;335964;28;4578;-79
2024/01/22 00:36:48;;;;;;;9.23;4.82;;;;;;;1.04;86.91;100088.00;333374;28;17967;-79
2024/01/22 00:37:00;;;;;;;9.90;4.95;;;;;;;1.06;86.92;100075.22;336471;28;4542;-78
2024/01/22 00:37:12;;;;;;;9.25;5.13;;;;;;;1.06;86.99;100080.34;334288;28;17830;-78
2024/01/22 00:37:24;;;;;;;8.52;4.90;;;;;;;1.08;86.81;100076.97;336762;28;5210;-77
2024/01/22 00:37:36;;;;;;;8.80;4.75;;;;;;;1.10;87.01;100067.59;332986;28;4949;-78
2024/01/22 00:37:48;;;;;;;9.23;4.95;;;;;;;1.14;86.78;100064.25;335076;28;18441;-78
2024/01/22 00:38:00;;;;;;;9.15;5.05;;;;;;;1.13;86.71;100070.22;337670;28;5151;-79
2024/01/22 00:38:12;;;;;;;8.90;5.15;;;;;;;1.13;86.60;100077.03;336493;28;4695;-79
2024/01/22 00:38:24;;;;;;;8.60;4.97;;;;;;;1.09;86.64;100071.03;332661;29;18090;-81
2024/01/22 00:38:36;;;;;;;8.45;5.15;;;;;;;1.03;86.80;100081.19;337669;28;4558;-78
2024/01/22 00:38:48;;;;;;;8.73;5.00;;;;;;;0.97;86.58;100081.97;334814;28;18080;-77
2024/01/22 00:39:00;;;;;;;8.52;4.57;;;;;;;0.94;86.81;100083.59;337696;28;4733;-78
2024/01/22 00:39:12;;;;;;;7.75;4.38;;;;;;;0.94;87.24;100086.16;336468;28;5929;-79
2024/01/22 00:39:25;;;;;;;6.32;4.28;;;;;;;0.96;86.91;100084.50;334470;28;5273;-78
2024/01/22 00:39:37;;;;;;;7.47;4.13;;;;;;;0.97;86.89;100081.97;337444;28;4806;-78
2024/01/22 00:39:51;;;;;;;7.15;4.03;;;;;;;0.96;86.98;100081.94;334864;28;13249;-78
2024/01/22 00:40:04;;;;;;;8.68;4.72;;;;;;;0.91;87.56;100075.91;337548;28;5128;-78
2024/01/22 00:40:16;;;;;;;10.48;5.35;;;;;;;0.90;87.54;100081.84;334488;28;17989;-79
2024/01/22 00:40:28;;;;;;;9.95;5.03;;;;;;;0.90;87.70;100076.72;337179;28;5103;-77
2024/01/22 00:40:40;;;;;;;8.63;4.60;;;;;;;0.88;87.30;100075.84;335054;28;12972;-77
2024/01/22 00:40:52;;;;;;;10.23;4.53;;;;;;;0.83;87.44;100077.50;338089;28;5334;-77
2024/01/22 00:41:04;;;;;;;10.23;4.72;;;;;;;0.83;87.63;100080.06;336300;28;13333;-76
2024/01/22 00:41:16;;;;;;;8.80;4.70;;;;;;;0.84;87.76;100079.22;338570;28;4552;-77
2024/01/22 00:41:28;;;;;;;7.82;4.68;;;;;;;0.86;87.10;100080.09;338407;28;4575;-77
2024/01/22 00:41:40;;;;;;;8.15;4.30;;;;;;;0.91;87.73;100083.59;334999;28;19373;-77
2024/01/22 00:41:52;;;;;;;7.35;4.30;;;;;;;0.93;87.16;100079.34;336342;28;4526;-77
2024/01/22 00:42:04;;;;;;;7.95;4.65;;;;;;;0.93;86.92;100080.19;336280;28;4555;-77
2024/01/22 00:42:16;;;;;;;8.52;4.78;;;;;;;0.88;87.06;100078.41;332605;28;19609;-79
2024/01/22 00:42:28;;;;;;;10.23;5.70;;;;;;;0.89;87.40;100085.25;334198;28;4619;-78
2024/01/22 00:42:42;;;;;;;11.43;6.35;;;;;;;0.87;87.28;100074.16;333319;28;18699;-79
2024/01/22 00:42:55;;;;;;;11.48;6.13;;;;;;;0.87;86.88;100084.38;335159;28;12578;-79
2024/01/22 00:43:07;;;;;;;9.93;5.55;;;;;;;0.87;87.30;100089.50;337531;28;4999;-77
2024/01/22 00:43:19;;;;;;;9.30;4.85;;;;;;;0.86;86.98;100082.66;337424;28;5251;-77
2024/01/22 00:43:31;;;;;;;9.30;4.95;;;;;;;0.87;87.08;100079.28;330030;28;18124;-79
2024/01/22 00:43:43;;;;;;;9.35;5.07;;;;;;;0.86;87.42;100082.66;336431;28;4563;-78
2024/01/22 00:43:56;;;;;;;9.02;5.38;;;;;;;0.85;87.46;100086.91;332064;29;18425;-77
2024/01/22 00:44:08;;;;;;;9.13;5.20;;;;;;;0.88;87.20;100080.97;334629;29;4800;-77
2024/01/22 00:44:20;;;;;;;8.05;4.82;;;;;;;0.88;87.37;100083.53;332230;29;13759;-76
2024/01/22 00:44:32;;;;;;;8.23;4.70;;;;;;;0.88;87.26;100086.09;334532;29;5016;-77
2024/01/22 00:44:44;;;;;;;8.98;5.00;;;;;;;0.88;87.49;100092.06;335424;29;4855;-77
2024/01/22 00:44:56;;;;;;;8.63;5.10;;;;;;;0.90;87.17;100084.41;333094;28;18171;-77
2024/01/22 00:45:08;;;;;;;7.68;4.53;;;;;;;0.89;87.50;100085.25;331526;28;4719;-77
2024/01/22 00:45:20;;;;;;;8.35;3.85;;;;;;;0.88;86.90;100080.97;334220;28;4547;-76
2024/01/22 00:45:32;;;;;;;8.10;4.10;;;;;;;0.88;86.68;100086.09;336338;28;4727;-78
2024/01/22 00:45:45;;;;;;;7.70;4.28;;;;;;;0.88;86.90;100086.09;336833;28;5496;-79
2024/01/22 00:45:57;;;;;;;8.02;4.40;;;;;;;0.87;86.69;100084.38;334202;28;17898;-78
2024/01/22 00:46:09;;;;;;;7.40;4.20;;;;;;;0.85;87.12;100086.06;336603;28;4537;-77
2024/01/22 00:46:21;;;;;;;7.97;4.47;;;;;;;0.82;87.17;100086.00;336730;28;13166;-77
2024/01/22 00:46:33;;;;;;;8.68;4.53;;;;;;;0.79;87.31;100077.44;334891;28;18213;-80
2024/01/22 00:46:47;;;;;;;10.15;4.97;;;;;;;0.79;87.34;100079.16;333766;28;18049;-77
2024/01/22 00:46:59;;;;;;;10.93;5.18;;;;;;;0.76;86.84;100082.50;337080;28;4903;-77
2024/01/22 00:47:11;;;;;;;9.93;5.07;;;;;;;0.77;87.33;100084.25;334992;28;5284;-77
2024/01/22 00:47:23;;;;;;;8.82;5.57;;;;;;;0.78;87.64;100075.72;338498;28;4534;-78
2024/01/22 00:47:36;;;;;;;9.25;5.85;;;;;;;0.78;87.59;100073.16;336745;28;13517;-77
2024/01/22 00:47:48;;;;;;;9.43;5.68;;;;;;;0.80;87.59;100078.31;332413;28;16561;-77
2024/01/22 00:48:00;;;;;;;9.13;5.15;;;;;;;0.81;87.09;100079.19;331483;28;5259;-77
2024/01/22 00:48:13;;;;;;;8.27;4.80;;;;;;;0.81;87.21;100076.63;333784;28;17952;-78
2024/01/22 00:48:25;;;;;;;8.50;4.63;;;;;;;0.79;87.15;100076.59;334182;29;4575;-78
2024/01/22 00:48:37;;;;;;;9.88;5.00;;;;;;;0.78;87.17;100073.16;332027;29;17608;-78
2024/01/22 00:48:49;;;;;;;9.30;5.22;;;;;;;0.79;87.51;100076.59;334824;28;5408;-77
2024/01/22 00:49:02;;;;;;;10.18;5.75;;;;;;;0.79;87.22;100074.88;332456;29;12683;-76
2024/01/22 00:49:15;;;;;;;9.80;5.68;;;;;;;0.81;86.87;100076.63;335109;28;4577;-78
2024/01/22 00:49:27;;;;;;;9.30;5.38;;;;;;;0.82;86.98;100075.78;330083;29;5538;-77
2024/01/22 00:49:39;;;;;;;9.23;5.22;;;;;;;0.83;87.28;100074.94;336097;28;5403;-77
2024/01/22 00:49:51;;;;;;;10.15;5.60;;;;;;;0.83;86.90;100069.81;336602;28;4521;-78
2024/01/22 00:50:04;;;;;;;8.73;5.30;;;;;;;0.83;86.96;100075.78;333925;29;17820;-79
2024/01/22 00:50:16;;;;;;;9.98;5.55;;;;;;;0.84;87.05;100074.94;337016;28;4596;-77
2024/01/22 00:50:28;;;;;;;9.45;5.65;;;;;;;0.84;87.34;100074.94;333142;28;19421;-78
2024/01/22 00:50:40;;;;;;;9.32;5.80;;;;;;;0.85;86.68;100080.94;337759;28;4609;-78
2024/01/22 00:50:52;;;;;;;9.73;5.95;;;;;;;0.87;87.18;100079.28;337122;28;5127;-77
2024/01/22 00:51:04;;;;;;;9.57;5.60;;;;;;;0.86;86.56;100072.41;333375;29;17838;-77
2024/01/22 00:51:16;;;;;;;8.40;5.03;;;;;;;0.87;86.88;100080.13;335569;29;4710;-77
2024/01/22 00:51:29;;;;;;;8.50;5.35;;;;;;;0.88;86.99;100075.84;331493;29;5252;-78
2024/01/22 00:51:41;;;;;;;7.90;5.03;;;;;;;0.88;86.59;100074.16;334704;29;5262;-80
2024/01/22 00:51:53;;;;;;;8.30;5.30;;;;;;;0.90;86.68;100074.16;331126;29;12810;-78
2024/01/22 00:52:05;;;;;;;8.05;5.05;;;;;;;0.89;86.51;100072.47;334156;29;5361;-78
2024/01/22 00:52:17;;;;;;;8.48;5.10;;;;;;;0.89;86.36;100069.91;329505;28;4822;-79
2024/01/22 00:52:29;;;;;;;8.13;4.93;;;;;;;0.89;86.71;100073.31;331942;29;17720;-81
2024/01/22 00:52:41;;;;;;;9.80;5.40;;;;;;;0.90;86.63;100076.72;336356;29;4579;-77
2024/01/22 00:52:53;;;;;;;10.88;5.55;;;;;;;0.92;86.68;100075.06;334209;28;4560;-78
2024/01/22 00:53:05;;;;;;;11.18;5.43;;;;;;;0.92;86.37;100075.06;337503;28;4509;-79
2024/01/22 00:53:17;;;;;;;10.13;5.28;;;;;;;0.91;86.64;100078.47;336481;28;5565;-80
2024/01/22 00:53:29;;;;;;;10.25;5.40;;;;;;;0.90;85.95;100077.59;335185;28;19913;-78
2024/01/22 00:53:41;;;;;;;8.57;5.13;;;;;;;0.91;86.86;100078.47;337591;28;6671;-78
2024/01/22 00:53:53;;;;;;;8.25;5.10;;;;;;;0.90;86.20;100075.03;332410;28;4719;-78
2024/01/22 00:54:05;;;;;;;8.82;4.85;;;;;;;0.91;86.41;100065.66;335386;28;18059;-77
2024/01/22 00:54:17;;;;;;;8.73;5.00;;;;;;;0.90;86.36;100074.16;336781;28;4525;-79
2024/01/22 00:54:29;;;;;;;9.30;5.10;;;;;;;0.88;85.94;100076.69;336188;28;17998;-78
2024/01/22 00:54:41;;;;;;;8.80;4.88;;;;;;;0.86;86.43;100078.38;338667;28;4508;-79
2024/01/22 00:54:53;;;;;;;9.73;5.18;;;;;;;0.85;86.31;100075.81;338090;28;4535;-78
2024/01/22 00:55:05;;;;;;;9.77;5.43;;;;;;;0.76;86.84;100077.38;335282;28;18108;-77
2024/01/22 00:55:17;;;;;;;8.45;4.97;;;;;;;0.75;86.83;100070.56;337385;28;4620;-78
2024/01/22 00:55:29;;;;;;;7.07;4.60;;;;;;;0.76;86.50;100066.31;336203;28;19058;-78
2024/01/22 00:55:41;;;;;;;7.07;4.30;;;;;;;0.77;86.41;100075.72;338727;28;4615;-78
2024/01/22 00:55:53;;;;;;;7.65;4.57;;;;;;;0.78;86.49;100078.28;338314;28;5060;-79
2024/01/22 00:56:05;;;;;;;6.93;4.57;;;;;;;0.81;86.46;100074.91;335965;28;17976;-78
2024/01/22 00:56:21;;;;;;;6.82;4.45;;;;;;;0.83;87.11;100074.94;334061;28;17739;-77
2024/01/22 00:56:33;;;;;;;9.68;4.68;;;;;;;0.82;86.47;100075.78;337563;28;4733;-78
2024/01/22 00:56:45;;;;;;;10.80;4.78;;;;;;;0.82;86.54;100076.63;336575;28;16393;-77
2024/01/22 00:56:58;;;;;;;10.60;5.18;;;;;;;0.83;86.60;100072.38;335537;28;18020;-78
2024/01/22 00:57:10;;;;;;;8.68;4.97;;;;;;;0.85;86.57;100071.56;334058;28;17764;-77
2024/01/22 00:57:22;;;;;;;8.65;4.97;;;;;;;0.85;86.82;100079.25;336348;28;5139;-77
2024/01/22 00:57:37;;;;;;;9.15;4.88;;;;;;;0.84;86.74;100079.22;334187;28;4740;-76
2024/01/22 00:57:49;;;;;;;8.93;5.13;;;;;;;0.85;86.34;100080.94;336067;28;5194;-77
2024/01/22 00:58:01;;;;;;;8.80;5.18;;;;;;;0.87;86.44;100084.38;333499;28;19129;-78
2024/01/22 00:58:13;;;;;;;8.98;4.80;;;;;;;0.86;86.06;100077.53;337650;28;4654;-77
2024/01/22 00:58:25;;;;;;;10.30;4.85;;;;;;;0.86;86.04;100077.53;334407;28;18287;-77
2024/01/22 00:58:37;;;;;;;11.00;4.80;;;;;;;0.86;86.14;100082.66;337339;28;4897;-77